createdAt,value
2024-02-23T00:03:02.812Z,70.42
2024-02-23T00:06:37.873Z,70.42
2024-02-23T00:10:06.830Z,70.33
2024-02-23T00:13:53.927Z,70.43
2024-02-23T00:17:41.206Z,70.52
2024-02-23T00:21:28.102Z,70.95
2024-02-23T00:25:14.937Z,70.60
2024-02-23T00:28:43.355Z,70.62
2024-02-23T00:32:14.968Z,70.63
2024-02-23T00:35:22.831Z,70.58
2024-02-23T00:38:29.895Z,70.60
2024-02-23T00:42:16.680Z,70.68
2024-02-23T00:45:28.983Z,70.69
2024-02-23T00:48:36.408Z,70.50
2024-02-23T00:52:23.179Z,70.44
2024-02-23T00:55:51.578Z,70.63
2024-02-23T00:59:22.969Z,70.65
2024-02-23T01:03:09.695Z,70.77
2024-02-23T01:06:38.176Z,70.93
2024-02-23T01:10:07.228Z,71.18
2024-02-23T01:13:34.262Z,71.30
2024-02-23T01:17:05.545Z,71.16
2024-02-23T01:20:41.400Z,71.27
2024-02-23T01:24:12.586Z,71.24
2024-02-23T01:27:21.364Z,71.16
2024-02-23T01:30:35.068Z,71.21
2024-02-23T01:34:03.728Z,71.22
2024-02-23T01:37:30.783Z,71.07
2024-02-23T01:40:59.001Z,71.07
2024-02-23T01:44:42.079Z,70.99
2024-02-23T01:48:09.256Z,70.89
2024-02-23T01:51:56.154Z,70.79
2024-02-23T01:55:16.657Z,70.81
2024-02-23T01:59:03.381Z,71.01
2024-02-23T02:04:29.395Z,71.01
2024-02-23T02:07:03.853Z,71.04
2024-02-23T02:09:58.086Z,71.01
2024-02-23T02:13:01.500Z,70.87
2024-02-23T02:15:51.435Z,70.77
2024-02-23T02:18:24.612Z,70.73
2024-02-23T02:21:17.979Z,70.68
2024-02-23T02:23:49.480Z,70.61
2024-02-23T02:26:56.695Z,70.61
2024-02-23T02:29:46.002Z,70.68
2024-02-23T02:32:36.769Z,70.70
2024-02-23T02:35:27.442Z,70.55
2024-02-23T02:38:21.133Z,70.45
2024-02-23T02:41:12.138Z,70.52
2024-02-23T02:44:39.248Z,70.43
2024-02-23T02:47:47.291Z,70.38
2024-02-23T02:51:15.230Z,70.43
2024-02-23T02:54:02.751Z,70.38
2024-02-23T02:57:11.102Z,70.34
2024-02-23T03:00:18.046Z,70.43
2024-02-23T03:03:01.864Z,70.56
2024-02-23T03:05:31.280Z,70.60
2024-02-23T03:08:03.629Z,70.83
2024-02-23T03:10:37.658Z,70.97
2024-02-23T03:13:12.941Z,70.95
2024-02-23T03:15:41.702Z,71.15
2024-02-23T03:18:16.305Z,71.71
2024-02-23T03:20:46.023Z,72.17
2024-02-23T03:23:14.155Z,72.08
2024-02-23T03:25:41.963Z,72.54
2024-02-23T03:28:10.189Z,71.97
2024-02-23T03:30:38.624Z,72.05
2024-02-23T03:33:06.620Z,72.30
2024-02-23T03:35:34.313Z,73.35
2024-02-23T03:38:04.183Z,73.69
2024-02-23T03:40:31.559Z,74.11
2024-02-23T03:42:59.205Z,74.36
2024-02-23T03:45:48.549Z,74.24
2024-02-23T03:48:16.252Z,74.12
2024-02-23T03:50:43.782Z,73.83
2024-02-23T03:53:13.394Z,74.03
2024-02-23T03:55:40.746Z,74.04
2024-02-23T03:58:08.926Z,74.30
2024-02-23T04:00:36.372Z,74.33
2024-02-23T04:03:03.814Z,73.99
2024-02-23T04:05:31.496Z,74.41
2024-02-23T04:07:59.148Z,75.43
2024-02-23T04:10:26.519Z,75.73
2024-02-23T04:12:53.830Z,75.10
2024-02-23T04:15:21.188Z,74.68
2024-02-23T04:17:48.501Z,74.81
2024-02-23T04:20:15.703Z,75.23
2024-02-23T04:22:43.024Z,75.66
2024-02-23T04:25:10.261Z,75.30
2024-02-23T04:27:37.502Z,75.50
2024-02-23T04:30:06.578Z,76.19
2024-02-23T04:32:34.010Z,76.35
2024-02-23T04:35:01.412Z,75.99
2024-02-23T04:37:28.707Z,75.52
2024-02-23T04:39:55.997Z,75.58
2024-02-23T04:42:23.418Z,76.17
2024-02-23T04:44:51.049Z,76.84
2024-02-23T04:47:18.318Z,77.12
2024-02-23T04:49:45.743Z,77.02
2024-02-23T04:52:13.368Z,77.02
2024-02-23T04:54:40.695Z,76.87
2024-02-23T04:57:08.236Z,76.64
2024-02-23T04:59:35.855Z,76.92
2024-02-23T05:02:03.224Z,76.13
2024-02-23T05:04:30.472Z,76.26
2024-02-23T05:06:57.849Z,76.91
2024-02-23T05:09:25.159Z,77.17
2024-02-23T05:11:52.712Z,76.30
2024-02-23T05:14:20.553Z,76.53
2024-02-23T05:16:48.009Z,77.29
2024-02-23T05:19:15.479Z,77.09
2024-02-23T05:21:42.781Z,77.13
2024-02-23T05:24:10.151Z,77.01
2024-02-23T05:26:37.592Z,76.56
2024-02-23T05:29:05.415Z,76.61
2024-02-23T05:31:59.031Z,76.57
2024-02-23T05:34:26.322Z,76.91
2024-02-23T05:36:53.606Z,76.93
2024-02-23T05:39:21.006Z,77.53
2024-02-23T05:41:48.995Z,77.17
2024-02-23T05:44:16.321Z,77.61
2024-02-23T05:46:45.401Z,77.63
2024-02-23T05:49:14.228Z,77.53
2024-02-23T05:51:41.826Z,77.64
2024-02-23T05:54:10.486Z,77.52
2024-02-23T05:56:38.989Z,77.72
2024-02-23T05:59:06.606Z,78.26
2024-02-23T06:01:34.045Z,78.17
2024-02-23T06:04:01.390Z,77.78
2024-02-23T06:06:28.782Z,77.83
2024-02-23T06:08:56.312Z,77.75
2024-02-23T06:11:23.764Z,77.91
2024-02-23T06:13:51.106Z,77.93
2024-02-23T06:16:18.386Z,78.11
2024-02-23T06:18:45.901Z,77.76
2024-02-23T06:21:22.206Z,77.73
2024-02-23T06:23:49.210Z,77.92
2024-02-23T06:26:16.293Z,77.81
2024-02-23T06:28:43.781Z,78.15
2024-02-23T06:31:11.871Z,78.17
2024-02-23T06:33:39.428Z,78.31
2024-02-23T06:36:07.485Z,77.94
2024-02-23T06:38:35.187Z,78.08
2024-02-23T06:41:02.646Z,78.87
2024-02-23T06:43:30.889Z,78.36
2024-02-23T06:45:58.421Z,78.14
2024-02-23T06:48:29.190Z,78.32
2024-02-23T06:50:59.145Z,78.26
2024-02-23T06:53:30.125Z,78.59
2024-02-23T06:55:57.545Z,78.63
2024-02-23T06:58:27.430Z,78.58
2024-02-23T07:00:55.179Z,78.52
2024-02-23T07:03:22.343Z,78.92
2024-02-23T07:05:51.822Z,79.37
2024-02-23T07:08:20.228Z,78.64
2024-02-23T07:10:47.596Z,79.07
2024-02-23T07:13:15.018Z,78.97
2024-02-23T07:15:42.172Z,78.45
2024-02-23T07:18:10.566Z,78.31
2024-02-23T07:20:39.127Z,78.43
2024-02-23T07:23:14.852Z,78.49
2024-02-23T07:25:43.248Z,78.71
2024-02-23T07:28:12.595Z,78.90
2024-02-23T07:30:40.786Z,78.88
2024-02-23T07:33:09.094Z,79.03
2024-02-23T07:35:39.609Z,78.93
2024-02-23T07:38:10.415Z,78.98
2024-02-23T07:40:39.219Z,78.99
2024-02-23T07:43:10.669Z,79.23
2024-02-23T07:45:39.566Z,79.19
2024-02-23T07:48:10.610Z,79.04
2024-02-23T07:50:37.973Z,79.55
2024-02-23T07:53:06.542Z,79.21
2024-02-23T07:55:35.124Z,79.24
2024-02-23T07:59:03.865Z,79.42
2024-02-23T08:02:54.029Z,79.19
2024-02-23T08:06:42.055Z,79.18
2024-02-23T08:10:30.100Z,79.54
2024-02-23T08:14:19.991Z,79.57
2024-02-23T08:18:07.662Z,79.55
2024-02-23T08:21:55.695Z,79.64
2024-02-23T08:25:44.858Z,79.74
2024-02-23T08:33:18.474Z,80.43
2024-02-23T08:37:06.658Z,80.46
2024-02-23T08:40:54.992Z,80.50
2024-02-23T08:44:42.864Z,80.47
2024-02-23T08:48:30.971Z,80.40
2024-02-23T08:52:08.852Z,80.45
2024-02-23T08:55:38.712Z,80.53
2024-02-23T08:59:07.386Z,80.62
2024-02-23T09:02:34.941Z,80.63
2024-02-23T09:06:04.230Z,80.69
2024-02-23T09:09:12.658Z,80.60
2024-02-23T09:12:42.999Z,80.51
2024-02-23T09:16:30.966Z,80.22
2024-02-23T09:20:18.470Z,80.25
2024-02-23T09:24:06.423Z,80.26
2024-02-23T09:31:38.724Z,80.31
2024-02-23T09:38:19.693Z,80.31
2024-02-23T09:41:32.781Z,80.23
2024-02-23T09:44:45.309Z,80.24
2024-02-23T09:48:12.913Z,80.20
2024-02-23T09:51:40.377Z,80.19
2024-02-23T09:54:36.015Z,80.20
2024-02-23T09:57:49.127Z,80.15
2024-02-23T10:01:34.645Z,80.19
2024-02-23T10:05:01.827Z,80.44
2024-02-23T10:08:50.697Z,80.41
2024-02-23T10:12:18.489Z,80.51
2024-02-23T10:14:58.647Z,80.27
2024-02-23T10:17:31.660Z,80.42
2024-02-23T10:20:42.980Z,80.36
2024-02-23T10:23:17.355Z,80.38
2024-02-23T10:26:09.843Z,80.22
2024-02-23T10:28:58.868Z,80.17
2024-02-23T10:31:54.524Z,80.16
2024-02-23T10:34:48.245Z,80.15
2024-02-23T10:37:58.339Z,80.05
2024-02-23T10:41:26.911Z,79.98
2024-02-23T10:44:57.499Z,80.04
2024-02-23T10:48:17.382Z,80.00
2024-02-23T10:51:44.580Z,79.95
2024-02-23T10:54:57.272Z,79.95
2024-02-23T10:58:44.156Z,79.89
2024-02-23T11:02:32.252Z,79.92
2024-02-23T11:06:02.440Z,79.93
2024-02-23T11:09:49.159Z,79.88
2024-02-23T11:12:56.455Z,79.84
2024-02-23T11:16:32.239Z,79.70
2024-02-23T11:19:58.149Z,79.63
2024-02-23T11:23:25.707Z,79.56
2024-02-23T11:26:53.298Z,79.60
2024-02-23T11:30:05.517Z,79.66
2024-02-23T11:33:19.770Z,79.76
2024-02-23T11:36:49.742Z,79.55
2024-02-23T11:40:36.689Z,79.52
2024-02-23T11:43:45.187Z,79.53
2024-02-23T11:47:32.340Z,79.37
2024-02-23T11:50:59.533Z,79.35
2024-02-23T11:54:26.526Z,79.39
2024-02-23T11:57:56.596Z,79.45
2024-02-23T12:01:29.037Z,79.69
2024-02-23T12:04:40.429Z,79.77
2024-02-23T12:07:36.428Z,79.86
2024-02-23T12:11:01.019Z,80.10
2024-02-23T12:13:48.757Z,79.72
2024-02-23T12:16:47.917Z,79.86
2024-02-23T12:19:43.960Z,79.97
2024-02-23T12:22:39.563Z,79.64
2024-02-23T12:25:47.088Z,79.50
2024-02-23T12:28:54.129Z,79.50
2024-02-23T12:32:21.078Z,79.51
2024-02-23T12:35:09.055Z,79.63
2024-02-23T12:38:19.913Z,79.20
2024-02-23T12:41:09.348Z,79.08
2024-02-23T12:44:18.682Z,79.05
2024-02-23T12:47:11.954Z,79.05
2024-02-23T12:50:02.845Z,79.63
2024-02-23T12:52:56.229Z,79.68
2024-02-23T12:55:30.851Z,79.38
2024-02-23T12:58:27.637Z,79.12
2024-02-23T13:01:35.785Z,78.98
2024-02-23T13:04:46.339Z,78.98
2024-02-23T13:07:34.675Z,79.02
2024-02-23T13:11:01.673Z,79.29
2024-02-23T13:14:31.810Z,79.18
2024-02-23T13:17:21.613Z,79.53
2024-02-23T13:20:30.358Z,79.29
2024-02-23T13:23:54.209Z,79.26
2024-02-23T13:26:54.014Z,79.10
2024-02-23T13:29:28.740Z,79.48
2024-02-23T13:32:19.977Z,79.32
2024-02-23T13:35:07.905Z,79.17
2024-02-23T13:38:17.127Z,78.95
2024-02-23T13:41:26.221Z,79.04
2024-02-23T13:43:58.885Z,79.07
2024-02-23T13:47:09.932Z,79.22
2024-02-23T13:49:39.285Z,79.08
2024-02-23T13:55:22.804Z,79.52
2024-02-23T13:58:50.010Z,79.96
2024-02-23T14:02:37.600Z,79.82
2024-02-23T14:06:24.565Z,79.47
2024-02-23T14:10:12.868Z,79.58
2024-02-23T14:14:01.833Z,79.72
2024-02-23T14:17:48.921Z,79.86
2024-02-23T14:21:35.862Z,79.96
2024-02-23T14:25:22.839Z,80.36
2024-02-23T14:29:09.834Z,80.50
2024-02-23T14:32:56.732Z,80.26
2024-02-23T14:36:43.631Z,80.43
2024-02-23T14:40:30.385Z,80.51
2024-02-23T14:44:18.449Z,80.46
2024-02-23T14:48:11.487Z,80.38
2024-02-23T14:51:54.141Z,80.12
2024-02-23T14:55:21.532Z,80.10
2024-02-23T15:05:32.374Z,79.62
2024-02-23T15:09:19.094Z,79.64
2024-02-23T15:12:49.623Z,79.61
2024-02-23T15:16:17.802Z,79.45
2024-02-23T15:20:04.768Z,79.51
2024-02-23T15:23:51.829Z,79.48
2024-02-23T15:27:38.875Z,79.65
2024-02-23T15:31:08.813Z,79.62
2024-02-23T15:34:55.903Z,79.51
2024-02-23T15:38:23.101Z,79.54
2024-02-23T15:41:51.038Z,79.44
2024-02-23T15:44:58.040Z,79.42
2024-02-23T15:48:05.193Z,79.40
2024-02-23T15:51:42.107Z,79.29
2024-02-23T15:55:09.026Z,79.33
2024-02-23T15:58:21.779Z,79.28
2024-02-23T16:01:50.920Z,79.08
2024-02-23T16:05:14.632Z,78.76
2024-02-23T16:08:46.219Z,78.74
2024-02-23T16:12:13.417Z,78.78
2024-02-23T16:16:00.337Z,78.80
2024-02-23T16:19:47.349Z,78.84
2024-02-23T16:22:55.976Z,78.89
2024-02-23T16:26:23.010Z,78.77
2024-02-23T16:30:09.841Z,78.75
2024-02-23T16:33:18.503Z,78.84
2024-02-23T16:36:46.139Z,78.94
2024-02-23T16:40:17.366Z,79.01
2024-02-23T16:43:57.842Z,79.14
2024-02-23T16:47:09.528Z,78.99
2024-02-23T16:49:36.777Z,78.91
2024-02-23T16:53:03.747Z,78.73
2024-02-23T16:55:43.875Z,78.76
2024-02-23T16:58:11.707Z,78.89
2024-02-23T17:00:48.367Z,79.04
2024-02-23T17:03:57.242Z,79.18
2024-02-23T17:07:26.171Z,79.02
2024-02-23T17:11:02.324Z,78.90
2024-02-23T17:14:12.145Z,78.85
2024-02-23T17:16:50.484Z,79.01
2024-02-23T17:19:58.206Z,79.28
2024-02-23T17:22:26.432Z,79.41
2024-02-23T17:24:56.095Z,79.53
2024-02-23T17:27:40.410Z,79.38
2024-02-23T17:30:08.983Z,79.37
2024-02-23T17:32:36.142Z,79.42
2024-02-23T17:35:04.832Z,79.42
2024-02-23T17:37:32.099Z,79.36
2024-02-23T17:39:59.351Z,79.41
2024-02-23T17:42:26.470Z,79.43
2024-02-23T17:44:53.726Z,79.27
2024-02-23T17:47:20.738Z,78.87
2024-02-23T17:49:49.619Z,78.74
2024-02-23T17:52:17.496Z,78.71
2024-02-23T17:54:45.031Z,78.68
2024-02-23T17:57:12.041Z,78.56
2024-02-23T17:59:40.031Z,78.69
2024-02-23T18:02:08.080Z,79.04
2024-02-23T18:04:35.433Z,79.42
2024-02-23T18:07:02.697Z,79.43
2024-02-23T18:09:29.945Z,79.48
2024-02-23T18:11:57.243Z,79.54
2024-02-23T18:14:24.473Z,79.61
2024-02-23T18:16:51.535Z,79.43
2024-02-23T18:19:19.326Z,79.37
2024-02-23T18:21:46.470Z,79.38
2024-02-23T18:24:13.670Z,79.58
2024-02-23T18:26:42.592Z,79.32
2024-02-23T18:29:11.124Z,79.51
2024-02-23T18:31:38.632Z,79.71
2024-02-23T18:34:06.180Z,79.91
2024-02-23T18:36:33.700Z,79.90
2024-02-23T18:39:00.997Z,79.88
2024-02-23T18:41:28.241Z,79.92
2024-02-23T18:43:55.689Z,79.98
2024-02-23T18:46:23.018Z,79.91
2024-02-23T18:48:50.178Z,79.85
2024-02-23T18:51:20.981Z,79.68
2024-02-23T18:53:50.261Z,79.59
2024-02-23T18:56:17.434Z,79.62
2024-02-23T18:58:44.688Z,79.46
2024-02-23T19:01:14.095Z,79.48
2024-02-23T19:03:41.969Z,79.60
2024-02-23T19:06:10.447Z,79.63
2024-02-23T19:08:37.696Z,79.32
2024-02-23T19:11:08.588Z,79.37
2024-02-23T19:13:36.120Z,79.49
2024-02-23T19:16:03.209Z,79.64
2024-02-23T19:18:30.400Z,79.70
2024-02-23T19:20:57.619Z,79.68
2024-02-23T19:23:24.776Z,79.66
2024-02-23T19:25:51.991Z,79.59
2024-02-23T19:28:19.058Z,79.65
2024-02-23T19:30:48.085Z,79.64
2024-02-23T19:33:15.660Z,79.65
2024-02-23T19:35:42.867Z,79.62
2024-02-23T19:38:10.327Z,79.09
2024-02-23T19:40:37.570Z,79.06
2024-02-23T19:43:05.040Z,79.34
2024-02-23T19:45:32.172Z,79.36
2024-02-23T19:47:59.480Z,79.47
2024-02-23T19:50:26.767Z,79.50
2024-02-23T19:52:53.993Z,79.58
2024-02-23T19:55:21.176Z,79.59
2024-02-23T19:57:48.814Z,79.77
2024-02-23T20:00:16.150Z,79.88
2024-02-23T20:02:43.617Z,79.61
2024-02-23T20:05:10.989Z,79.79
2024-02-23T20:07:38.408Z,79.94
2024-02-23T20:10:07.506Z,80.07
2024-02-23T20:12:34.902Z,80.35
2024-02-23T20:15:04.590Z,80.13
2024-02-23T20:17:37.947Z,79.86
2024-02-23T20:20:50.171Z,79.80
2024-02-23T20:23:41.998Z,79.86
2024-02-23T20:27:08.795Z,79.95
2024-02-23T20:30:16.491Z,79.85
2024-02-23T20:33:04.294Z,80.05
2024-02-23T20:36:11.140Z,80.00
2024-02-23T20:39:11.232Z,80.07
2024-02-23T20:42:44.800Z,80.37
2024-02-23T20:46:14.107Z,79.93
2024-02-23T20:50:02.039Z,80.17
2024-02-23T20:53:52.809Z,80.09
2024-02-23T20:57:40.757Z,80.12
2024-02-23T21:01:28.584Z,80.04
2024-02-23T21:05:17.015Z,80.32
2024-02-23T21:09:04.319Z,80.33
2024-02-23T21:12:52.121Z,80.50
2024-02-23T21:16:39.763Z,80.40
2024-02-23T21:20:27.175Z,80.40
2024-02-23T21:24:16.481Z,80.62
2024-02-23T21:27:43.638Z,80.55
2024-02-23T21:31:30.399Z,80.40
2024-02-23T21:34:57.232Z,80.33
2024-02-23T21:38:26.456Z,80.51
2024-02-23T21:42:15.789Z,80.43
2024-02-23T21:45:47.879Z,80.58
2024-02-23T21:49:14.670Z,80.55
2024-02-23T21:52:43.464Z,80.48
2024-02-23T21:56:30.224Z,80.43
2024-02-23T21:59:22.241Z,80.08
2024-02-23T22:02:49.094Z,79.99
2024-02-23T22:05:40.248Z,80.05
2024-02-23T22:09:08.372Z,80.16
2024-02-23T22:12:55.510Z,80.22
2024-02-23T22:16:42.921Z,79.91
2024-02-23T22:20:23.402Z,80.07
2024-02-23T22:23:52.187Z,80.17
2024-02-23T22:26:20.164Z,80.14
2024-02-23T22:29:47.216Z,80.22
2024-02-23T22:32:28.997Z,80.32
2024-02-23T22:34:59.156Z,80.46
2024-02-23T22:37:37.547Z,80.26
2024-02-23T22:40:06.847Z,80.36
2024-02-23T22:42:41.176Z,80.30
2024-02-23T22:45:11.274Z,80.28
2024-02-23T22:47:41.533Z,80.23
2024-02-23T22:50:09.353Z,80.37
2024-02-23T22:52:38.421Z,80.36
2024-02-23T22:55:25.683Z,80.13
2024-02-23T22:57:53.533Z,80.30
2024-02-23T23:00:22.561Z,80.32
2024-02-23T23:03:30.635Z,80.52
2024-02-23T23:05:57.799Z,80.60
2024-02-23T23:09:13.547Z,80.30
2024-02-23T23:12:40.942Z,80.24
2024-02-23T23:15:49.852Z,80.27
2024-02-23T23:19:07.546Z,80.28
2024-02-23T23:22:19.686Z,80.15
2024-02-23T23:25:12.143Z,80.06
2024-02-23T23:27:42.569Z,80.16
2024-02-23T23:30:19.686Z,80.01
2024-02-23T23:33:06.226Z,79.94
2024-02-23T23:35:54.372Z,80.08
2024-02-23T23:39:24.851Z,80.02
2024-02-23T23:43:12.657Z,80.07
2024-02-23T23:47:01.683Z,80.19
2024-02-23T23:50:50.185Z,80.30
2024-02-23T23:58:22.514Z,80.34
